Time;durP1;ratioP1;P1;durP2;ratioP2;P2;SDS_P1;SDS_P2;PMS_P1;PMS_P2;Temp;Humidity;BMP_temperature;BMP_pressure;BME280_temperature;BME280_humidity;BME280_pressure;Samples;Min_cycle;Max_cycle;Signal;HPM_P1;HPM_P2
2022/04/29 00:00:16;;;;;;;5.85;4.30;;;;;;;10.55;70.88;100844.00;12207853;19;20041;-81
2022/04/29 00:04:18;;;;;;;8.43;5.13;;;;;;;10.54;71.23;100836.81;12192470;19;20022;-82
2022/04/29 00:08:19;;;;;;;6.55;4.22;;;;;;;10.54;71.19;100839.56;12216000;19;20010;-81
2022/04/29 00:12:21;;;;;;;6.00;4.22;;;;;;;10.52;71.47;100839.78;12211081;19;20010;-81
2022/04/29 00:16:25;;;;;;;4.55;3.78;;;;;;;10.48;72.10;100838.53;12183700;19;20418;-81
2022/04/29 00:20:27;;;;;;;6.03;4.32;;;;;;;10.44;72.85;100827.13;12216978;19;20035;-81
2022/04/29 00:24:29;;;;;;;7.63;4.75;;;;;;;10.40;72.89;100834.16;12209622;19;20736;-82
2022/04/29 00:28:30;;;;;;;8.02;5.18;;;;;;;10.37;72.93;100826.31;12185664;19;20027;-82
2022/04/29 00:32:32;;;;;;;11.00;5.68;;;;;;;10.40;72.28;100830.56;12214765;19;20011;-82
2022/04/29 00:36:34;;;;;;;9.25;5.32;;;;;;;10.40;72.47;100834.16;12215610;19;20708;-82
2022/04/29 00:40:35;;;;;;;8.48;5.88;;;;;;;10.39;72.94;100835.22;12185208;19;20093;-82
2022/04/29 00:44:39;;;;;;;11.75;6.78;;;;;;;10.39;72.21;100832.47;12206216;19;20006;-82
2022/04/29 00:48:41;;;;;;;8.52;5.85;;;;;;;10.40;71.56;100830.56;12204065;19;20062;-82
2022/04/29 00:52:47;;;;;;;11.68;6.25;;;;;;;10.38;71.66;100827.16;12192467;19;20046;-82
2022/04/29 00:56:52;;;;;;;13.50;6.55;;;;;;;10.35;72.46;100827.63;12204870;19;20019;-81
2022/04/29 01:00:55;;;;;;;10.23;6.13;;;;;;;10.25;72.77;100817.91;12178037;19;20007;-80
2022/04/29 01:05:02;;;;;;;9.80;7.00;;;;;;;10.17;73.70;100826.47;12212793;19;20014;-81
2022/04/29 01:09:03;;;;;;;10.00;6.35;;;;;;;10.10;73.40;100814.63;12205640;19;20540;-82
2022/04/29 01:13:05;;;;;;;9.52;6.95;;;;;;;10.00;74.82;100815.13;12185463;19;20485;-82
2022/04/29 01:17:07;;;;;;;12.63;6.95;;;;;;;9.93;74.99;100811.53;12201460;19;20027;-82
2022/04/29 01:21:08;;;;;;;10.45;7.18;;;;;;;9.88;74.90;100805.88;12200007;19;20426;-82
2022/04/29 01:25:11;;;;;;;11.80;7.20;;;;;;;9.79;75.27;100798.94;12186460;19;20007;-81
2022/04/29 01:29:19;;;;;;;9.25;6.88;;;;;;;9.73;75.94;100799.84;12196438;19;20010;-82
2022/04/29 01:33:21;;;;;;;9.52;6.72;;;;;;;9.66;76.08;100799.00;12200091;19;20019;-81
2022/04/29 01:37:23;;;;;;;9.85;6.55;;;;;;;9.62;76.24;100792.28;12187383;19;20101;-81
2022/04/29 01:41:25;;;;;;;10.23;7.25;;;;;;;9.57;76.28;100795.66;12202897;19;20010;-81
2022/04/29 01:45:26;;;;;;;10.70;6.68;;;;;;;9.51;76.24;100782.78;12204672;19;20014;-81
2022/04/29 01:49:44;;;;;;;9.23;6.57;;;;;;;9.43;76.21;100781.16;12172046;19;20465;-81
2022/04/29 01:53:53;;;;;;;10.70;6.82;;;;;;;9.43;76.81;100775.66;12200578;19;20473;-81
2022/04/29 01:57:56;;;;;;;9.45;6.43;;;;;;;9.43;77.43;100775.66;12186332;19;20520;-82
2022/04/29 02:01:59;;;;;;;;;;;;;;;9.40;79.63;100776.09;12205262;19;20020;-82
2022/04/29 02:06:01;;;;;;;9.32;6.22;;;;;;;9.38;78.91;100767.19;12201416;19;19911;-81
2022/04/29 02:10:04;;;;;;;10.93;6.82;;;;;;;9.36;78.78;100772.06;12184262;19;20019;-80
2022/04/29 02:14:08;;;;;;;8.40;6.00;;;;;;;9.30;79.11;100768.28;12203731;19;20002;-81
2022/04/29 02:18:27;;;;;;;11.32;6.07;;;;;;;9.26;79.53;100764.28;12203186;19;20010;-81
2022/04/29 02:22:29;;;;;;;10.27;6.55;;;;;;;9.24;80.06;100765.56;12181826;19;20018;-79
2022/04/29 02:26:30;;;;;;;9.10;6.15;;;;;;;9.20;80.78;100761.56;12198183;19;20394;-81
2022/04/29 02:30:33;;;;;;;9.60;6.13;;;;;;;9.16;81.26;100763.91;12196031;19;20043;-78
2022/04/29 02:34:36;;;;;;;8.95;4.93;;;;;;;9.15;82.14;100756.72;12180672;19;20018;-80
2022/04/29 02:38:38;;;;;;;9.75;6.38;;;;;;;9.17;81.32;100759.25;12191715;19;20039;-80
2022/04/29 02:42:40;;;;;;;10.83;6.10;;;;;;;9.19;81.41;100757.09;12206849;19;20006;-82
2022/04/29 02:51:04;;;;;;;7.20;5.45;;;;;;;9.25;80.54;100751.59;12214542;19;19999;-82
2022/04/29 02:55:07;;;;;;;8.95;5.43;;;;;;;9.35;79.55;100756.63;12191892;19;20019;-81
2022/04/29 02:59:29;;;;;;;7.90;5.23;;;;;;;9.45;79.38;100751.50;12217877;19;20394;-82
2022/04/29 03:03:31;;;;;;;11.07;5.93;;;;;;;9.47;79.41;100752.13;12214777;19;20036;-82
2022/04/29 03:07:34;;;;;;;12.43;6.78;;;;;;;9.40;79.98;100751.31;12185567;19;20014;-81
2022/04/29 03:11:40;;;;;;;9.73;6.60;;;;;;;9.27;80.46;100751.38;12214827;19;20014;-82
2022/04/29 03:15:42;;;;;;;11.38;6.55;;;;;;;9.20;80.63;100745.91;12217305;19;20444;-82
2022/04/29 03:19:44;;;;;;;9.05;5.70;;;;;;;9.15;80.50;100744.88;12191949;19;20007;-82
2022/04/29 03:23:47;;;;;;;8.70;6.38;;;;;;;9.11;81.47;100737.06;12219986;19;20023;-82
2022/04/29 03:27:49;;;;;;;8.60;6.05;;;;;;;9.11;81.94;100739.81;12191164;19;20491;-82
2022/04/29 03:31:50;;;;;;;8.65;5.63;;;;;;;9.10;82.46;100738.13;12214740;19;20356;-82
2022/04/29 03:36:08;;;;;;;9.88;6.18;;;;;;;9.12;81.75;100735.97;12207869;19;20031;-82
2022/04/29 03:40:14;;;;;;;7.28;5.45;;;;;;;9.19;81.12;100738.72;12188157;19;20117;-82
2022/04/29 03:44:17;;;;;;;11.07;5.60;;;;;;;9.26;79.91;100735.94;12219005;19;20422;-82
2022/04/29 03:48:20;;;;;;;7.72;5.15;;;;;;;9.35;78.96;100734.63;12217495;19;20014;-82
2022/04/29 03:52:50;;;;;;;6.20;4.60;;;;;;;9.46;78.25;100731.19;12189439;19;20077;-82
2022/04/29 03:56:52;;;;;;;6.70;5.07;;;;;;;9.51;77.78;100734.09;12212025;19;20472;-82
2022/04/29 04:00:55;;;;;;;8.65;6.43;;;;;;;9.53;77.69;100731.16;12184193;19;20017;-82
2022/04/29 04:05:17;;;;;;;7.93;5.18;;;;;;;9.63;76.78;100741.66;12202559;19;20041;-83
2022/04/29 04:09:23;;;;;;;8.60;5.68;;;;;;;9.72;76.27;100743.09;12210911;19;20017;-82
2022/04/29 04:13:29;;;;;;;13.45;6.15;;;;;;;9.77;75.63;100746.03;12187991;19;20022;-81
2022/04/29 04:17:46;;;;;;;9.32;5.10;;;;;;;9.84;74.88;100744.06;12208181;19;20010;-83
2022/04/29 04:21:47;;;;;;;;;;;;;;;9.91;74.98;100744.03;12197826;19;20007;-82
2022/04/29 04:25:50;;;;;;;9.43;5.88;;;;;;;9.72;75.58;100754.94;12214129;19;19914;-83
2022/04/29 04:29:54;;;;;;;8.48;5.82;;;;;;;9.56;76.13;100749.97;12203873;19;20010;-83
2022/04/29 04:33:56;;;;;;;10.32;6.82;;;;;;;9.47;76.98;100746.63;12182724;19;20025;-82
2022/04/29 04:38:05;;;;;;;7.57;6.05;;;;;;;9.39;77.26;100752.38;12205037;19;20010;-82
2022/04/29 04:42:24;;;;;;;9.55;7.35;;;;;;;9.29;77.85;100757.50;12204668;19;20595;-83
2022/04/29 04:46:30;;;;;;;11.85;7.90;;;;;;;9.17;78.33;100764.75;12184023;19;20062;-82
2022/04/29 04:50:44;;;;;;;11.90;7.90;;;;;;;9.10;78.70;100768.38;12202899;19;20033;-83
2022/04/29 04:54:45;;;;;;;11.93;7.82;;;;;;;9.09;78.32;100769.41;12204970;19;20017;-83
2022/04/29 04:58:47;;;;;;;12.68;7.32;;;;;;;9.09;79.05;100768.56;12183429;19;20018;-81
2022/04/29 05:02:49;;;;;;;11.65;7.82;;;;;;;9.13;79.82;100786.31;12198959;19;20007;-82
2022/04/29 05:07:17;;;;;;;12.93;7.68;;;;;;;9.18;80.96;100791.19;12176139;19;20070;-83
2022/04/29 05:11:19;;;;;;;11.90;8.20;;;;;;;9.34;80.30;100785.22;12208319;19;20613;-82
2022/04/29 05:15:47;;;;;;;11.80;7.50;;;;;;;9.51;80.70;100794.63;12192473;19;20034;-81
2022/04/29 05:19:58;;;;;;;10.50;6.82;;;;;;;9.69;80.29;100798.56;12209363;19;20003;-82
2022/04/29 05:24:04;;;;;;;11.77;7.53;;;;;;;9.88;80.10;100797.63;12215831;19;20006;-80
2022/04/29 05:28:24;;;;;;;11.05;7.18;;;;;;;10.06;79.83;100812.56;12179138;19;20071;-82
2022/04/29 05:32:50;;;;;;;12.20;7.55;;;;;;;10.20;79.22;100803.09;12184304;19;20127;-83
2022/04/29 05:37:11;;;;;;;11.68;7.22;;;;;;;10.33;79.40;100803.06;12188628;19;20032;-81
2022/04/29 05:45:41;;;;;;;10.88;7.20;;;;;;;10.59;79.50;100807.50;12213327;19;20045;-81
2022/04/29 05:49:43;;;;;;;16.02;8.18;;;;;;;10.71;79.84;100813.97;12186321;19;20010;-81
2022/04/29 05:53:48;;;;;;;11.27;7.27;;;;;;;10.91;80.00;100804.63;12202283;19;20014;-81
2022/04/29 05:57:49;;;;;;;10.90;7.30;;;;;;;11.12;80.38;100809.75;12177472;19;20017;-81
2022/04/29 06:01:51;;;;;;;11.32;7.18;;;;;;;11.27;80.11;100805.72;12193433;19;20848;-81
2022/04/29 06:05:57;;;;;;;11.98;7.45;;;;;;;11.46;79.57;100801.06;12206963;19;20010;-79
2022/04/29 06:09:59;;;;;;;16.03;7.73;;;;;;;11.61;78.81;100787.69;12179574;19;20070;-82
2022/04/29 06:14:01;;;;;;;12.00;7.70;;;;;;;11.79;78.38;100801.47;12209376;19;20017;-81
2022/04/29 06:18:21;;;;;;;10.60;7.88;;;;;;;11.97;78.05;100792.31;12204916;19;20091;-81
2022/04/29 06:22:44;;;;;;;11.35;7.53;;;;;;;12.13;78.90;100799.06;12184117;19;20090;-82
2022/04/29 06:26:52;;;;;;;21.83;8.93;;;;;;;12.32;78.81;100791.56;12201769;19;20011;-82
2022/04/29 06:30:56;;;;;;;10.18;7.13;;;;;;;12.47;78.75;100796.63;12171002;19;20031;-82
2022/04/29 06:35:19;;;;;;;11.98;8.07;;;;;;;12.64;79.13;100794.84;12206107;19;20021;-81
2022/04/29 06:39:22;;;;;;;9.57;6.80;;;;;;;12.77;78.48;100791.84;12201870;19;20023;-81
2022/04/29 06:43:43;;;;;;;9.63;7.05;;;;;;;12.90;77.65;100804.56;12182566;19;20358;-81
2022/04/29 06:48:11;;;;;;;9.55;6.75;;;;;;;13.07;76.11;100799.16;12198903;19;20073;-80
2022/04/29 06:52:31;;;;;;;10.98;7.05;;;;;;;13.22;75.72;100793.13;12181427;19;20392;-80
2022/04/29 06:56:46;;;;;;;10.68;6.82;;;;;;;13.42;75.89;100795.53;12201729;19;20040;-80
2022/04/29 07:00:48;;;;;;;15.73;7.05;;;;;;;13.68;74.95;100796.88;12191293;19;20028;-80
2022/04/29 07:04:50;;;;;;;12.10;6.82;;;;;;;13.92;74.53;100803.19;12209178;19;20386;-79
2022/04/29 07:08:52;;;;;;;11.10;6.57;;;;;;;14.23;73.55;100803.75;12208109;19;20006;-80
2022/04/29 07:13:32;;;;;;;9.60;6.45;;;;;;;14.44;71.46;100803.00;12182598;19;20031;-80
2022/04/29 07:17:34;;;;;;;8.63;6.45;;;;;;;14.58;69.85;100807.16;12198665;19;20006;-79
2022/04/29 07:21:39;;;;;;;7.65;6.50;;;;;;;14.72;69.24;100804.03;12202314;19;20036;-80
2022/04/29 07:25:43;;;;;;;9.98;6.78;;;;;;;14.95;68.30;100806.63;12178095;19;20081;-80
2022/04/29 07:29:45;;;;;;;8.20;5.95;;;;;;;15.09;67.01;100801.56;12194204;19;20022;-79
2022/04/29 07:33:53;;;;;;;7.32;6.28;;;;;;;15.20;66.79;100796.97;12184536;19;20003;-79
2022/04/29 07:42:57;;;;;;;8.98;6.50;;;;;;;15.47;65.35;100800.69;12190435;19;20123;-80
2022/04/29 07:47:00;;;;;;;11.05;6.22;;;;;;;15.58;64.87;100792.47;12210524;19;20074;-80
2022/04/29 07:51:20;;;;;;;10.32;6.00;;;;;;;15.67;64.62;100802.88;12216306;19;20010;-80
2022/04/29 07:55:24;;;;;;;9.32;5.93;;;;;;;15.84;63.86;100799.19;12187642;19;20035;-79
2022/04/29 07:59:26;;;;;;;10.15;6.40;;;;;;;15.95;63.03;100803.78;12210935;19;20017;-80
2022/04/29 08:03:48;;;;;;;8.33;5.73;;;;;;;16.10;62.23;100808.66;12196985;19;20599;-79
2022/04/29 08:07:55;;;;;;;8.65;5.65;;;;;;;16.31;61.09;100806.91;12213787;19;20011;-79
2022/04/29 08:11:57;;;;;;;8.73;5.30;;;;;;;16.53;61.26;100801.25;12212046;19;20010;-80
2022/04/29 08:16:03;;;;;;;9.35;5.25;;;;;;;16.90;58.58;100797.69;12193344;19;20082;-80
2022/04/29 08:20:43;;;;;;;8.98;4.70;;;;;;;17.25;57.28;100786.78;12210774;19;20091;-80
2022/04/29 08:24:46;;;;;;;8.20;5.13;;;;;;;17.53;55.79;100798.59;12213310;19;20003;-80
2022/04/29 08:28:48;;;;;;;9.45;5.28;;;;;;;17.71;54.86;100798.09;12184567;19;20754;-79
2022/04/29 08:32:50;;;;;;;7.70;5.83;;;;;;;17.76;54.60;100798.13;12217487;19;20488;-80
2022/04/29 08:37:05;;;;;;;8.45;6.15;;;;;;;17.56;54.93;100809.19;12195858;19;20026;-79
2022/04/29 08:41:19;;;;;;;12.63;5.88;;;;;;;17.47;55.37;100800.53;12210431;19;20015;-80
2022/04/29 08:45:24;;;;;;;10.10;5.25;;;;;;;17.43;55.57;100801.31;12213841;19;20015;-80
2022/04/29 08:49:44;;;;;;;7.20;5.57;;;;;;;17.42;55.04;100799.66;12195274;19;20021;-79
2022/04/29 08:53:48;;;;;;;10.25;5.72;;;;;;;17.68;54.73;100792.25;12249853;19;20015;-79
2022/04/29 09:02:10;;;;;;;6.95;5.43;;;;;;;18.49;52.11;100796.34;12257412;19;20032;-80
2022/04/29 09:06:22;;;;;;;8.70;6.20;;;;;;;18.77;51.57;100786.56;12257903;19;20007;-79
2022/04/29 09:10:28;;;;;;;9.63;5.72;;;;;;;19.00;51.52;100785.16;12239945;19;20085;-79
2022/04/29 09:14:30;;;;;;;8.43;5.15;;;;;;;19.07;50.77;100771.75;12260420;19;20045;-80
2022/04/29 09:18:46;;;;;;;8.50;5.20;;;;;;;18.98;50.42;100777.06;12257626;19;20050;-79
2022/04/29 09:22:49;;;;;;;11.05;5.97;;;;;;;18.79;50.67;100774.00;12229290;19;20050;-79
2022/04/29 09:27:10;;;;;;;8.60;5.53;;;;;;;18.62;51.17;100768.72;12234147;19;20047;-80
2022/04/29 09:31:12;;;;;;;8.05;4.85;;;;;;;18.52;51.64;100779.03;12198422;19;20251;-79
2022/04/29 09:35:44;;;;;;;6.95;5.13;;;;;;;18.73;51.29;100763.97;12224581;19;20010;-80
2022/04/29 09:40:00;;;;;;;6.90;5.35;;;;;;;19.08;50.88;100768.66;12218942;19;20023;-80
2022/04/29 09:44:03;;;;;;;10.02;5.10;;;;;;;19.31;49.54;100756.00;12196027;19;20014;-80
2022/04/29 09:48:08;;;;;;;10.70;5.30;;;;;;;19.44;49.03;100757.34;12224113;19;20352;-80
2022/04/29 09:52:17;;;;;;;8.48;5.28;;;;;;;19.62;47.11;100752.25;12189804;19;20089;-81
2022/04/29 09:56:19;;;;;;;6.50;5.13;;;;;;;19.65;48.09;100740.50;12207780;19;20031;-80
2022/04/29 10:00:22;;;;;;;7.07;5.10;;;;;;;20.07;47.41;100736.31;12212313;19;20010;-79
2022/04/29 10:04:24;;;;;;;10.02;4.55;;;;;;;20.60;44.90;100733.69;12187139;19;20524;-80
2022/04/29 10:08:30;;;;;;;11.43;4.63;;;;;;;21.20;42.92;100736.13;12209923;19;20077;-80
2022/04/29 10:12:33;;;;;;;7.25;4.50;;;;;;;21.68;40.96;100727.69;12213214;19;20010;-81
2022/04/29 10:21:45;;;;;;;6.90;4.10;;;;;;;22.17;40.81;100710.41;12209138;19;20011;-80
2022/04/29 10:25:48;;;;;;;8.48;4.70;;;;;;;22.20;39.78;100712.59;12189141;19;20010;-79
2022/04/29 10:29:50;;;;;;;7.55;4.20;;;;;;;22.12;39.82;100713.25;12213269;19;20010;-80
2022/04/29 10:33:52;;;;;;;5.05;3.63;;;;;;;22.22;39.55;100712.28;12189373;19;20010;-80
2022/04/29 10:38:31;;;;;;;7.13;3.85;;;;;;;22.38;34.42;100710.91;12205997;19;20027;-80
2022/04/29 10:43:09;;;;;;;5.38;3.60;;;;;;;22.93;36.56;100715.78;12212867;19;20472;-80
2022/04/29 10:47:31;;;;;;;6.38;3.33;;;;;;;23.05;32.09;100696.47;12184513;19;20088;-79
2022/04/29 10:51:55;;;;;;;6.20;3.17;;;;;;;22.60;33.29;100707.41;12187683;19;20002;-80
2022/04/29 10:56:39;;;;;;;4.88;2.80;;;;;;;21.86;32.03;100693.19;12213775;19;20007;-80
2022/04/29 11:00:53;;;;;;;5.87;2.97;;;;;;;21.53;34.36;100695.91;12213637;19;20473;-80
2022/04/29 11:04:56;;;;;;;3.85;2.72;;;;;;;21.33;33.73;100691.41;12183581;19;20010;-81
2022/04/29 11:08:58;;;;;;;4.30;2.58;;;;;;;21.73;32.84;100685.53;12218848;19;20023;-80
2022/04/29 11:13:04;;;;;;;6.23;2.80;;;;;;;22.19;32.70;100679.22;12198016;19;20461;-79
2022/04/29 11:17:34;;;;;;;4.60;2.85;;;;;;;22.46;31.20;100670.88;12218592;19;20022;-80
2022/04/29 11:26:17;;;;;;;6.35;2.78;;;;;;;23.72;29.54;100653.69;12217809;19;20473;-79
2022/04/29 11:30:23;;;;;;;4.75;3.33;;;;;;;24.17;29.03;100661.31;12210444;19;20010;-80
2022/04/29 11:34:27;;;;;;;6.47;3.65;;;;;;;24.53;29.24;100664.88;12194855;19;20039;-80
2022/04/29 11:38:33;;;;;;;5.43;3.67;;;;;;;24.67;28.84;100653.53;12218994;19;20014;-79
2022/04/29 11:42:36;;;;;;;4.57;3.03;;;;;;;24.43;29.13;100645.47;12220609;19;20014;-81
2022/04/29 11:46:50;;;;;;;5.45;3.65;;;;;;;23.66;29.30;100643.69;12198357;19;20010;-79
2022/04/29 11:50:56;;;;;;;4.18;3.38;;;;;;;23.34;30.78;100645.53;12242309;19;20014;-79
2022/04/29 11:55:00;;;;;;;4.85;3.45;;;;;;;23.11;30.99;100646.59;12231672;19;20010;-79
2022/04/29 11:59:04;;;;;;;4.57;3.35;;;;;;;23.02;31.63;100642.84;12233849;19;20011;-80
2022/04/29 12:03:06;;;;;;;6.55;3.80;;;;;;;22.68;31.20;100636.47;12221157;19;20015;-80
2022/04/29 12:07:08;;;;;;;5.40;3.17;;;;;;;22.44;30.62;100630.22;12197467;19;20439;-80
2022/04/29 12:11:11;;;;;;;7.93;2.92;;;;;;;22.45;31.66;100621.47;12218047;19;20003;-80
2022/04/29 12:15:17;;;;;;;7.93;2.97;;;;;;;23.13;31.72;100627.44;12217184;19;20002;-79
2022/04/29 12:23:52;;;;;;;6.63;3.50;;;;;;;24.16;29.24;100617.44;12216743;19;20014;-80
2022/04/29 12:28:29;;;;;;;4.03;3.42;;;;;;;23.62;28.31;100612.53;12184204;19;20023;-80
2022/04/29 12:37:19;;;;;;;4.55;3.58;;;;;;;23.46;29.22;100597.16;12195070;19;20101;-80
2022/04/29 12:41:29;;;;;;;4.23;3.00;;;;;;;23.45;29.87;100595.50;12185147;19;20010;-80
2022/04/29 12:45:31;;;;;;;4.70;3.50;;;;;;;23.57;28.92;100594.94;12240610;19;20716;-80
2022/04/29 12:50:25;;;;;;;;;;;;;;;;;;;;;
2022/04/29 12:54:47;;;;;;;4.65;2.95;;;;;;;23.74;28.84;100583.88;12202344;19;20036;-79
2022/04/29 12:59:27;;;;;;;5.18;3.00;;;;;;;24.64;27.44;100582.91;12215771;19;20498;-80
2022/04/29 13:03:31;;;;;;;4.50;2.50;;;;;;;25.58;27.59;100580.59;12212076;19;20007;-78
2022/04/29 13:07:40;;;;;;;4.37;3.10;;;;;;;26.04;25.26;100576.28;12191435;19;20496;-79
2022/04/29 13:11:45;;;;;;;4.40;3.10;;;;;;;25.63;25.13;100575.63;12213074;19;20006;-80
2022/04/29 13:16:04;;;;;;;5.18;3.30;;;;;;;25.76;26.24;100562.53;12200147;19;20243;-80
2022/04/29 13:20:09;;;;;;;10.57;3.70;;;;;;;25.99;26.36;100562.34;12230651;19;20011;-81
2022/04/29 13:24:11;;;;;;;4.35;2.60;;;;;;;26.29;25.84;100552.75;12228167;19;20524;-80
2022/04/29 13:28:19;;;;;;;4.85;3.13;;;;;;;26.17;24.66;100535.69;12198654;19;20022;-80
2022/04/29 13:32:26;;;;;;;3.95;3.05;;;;;;;26.57;24.80;100529.75;12216252;19;20452;-80
2022/04/29 13:36:27;;;;;;;8.27;3.20;;;;;;;26.23;24.94;100525.88;12192583;19;20069;-80
2022/04/29 13:40:54;;;;;;;3.40;2.45;;;;;;;25.55;25.21;100522.00;12184560;19;20015;-80
2022/04/29 13:45:22;;;;;;;4.00;2.75;;;;;;;24.93;25.74;100509.88;12205968;19;20019;-80
2022/04/29 13:53:57;;;;;;;3.90;2.65;;;;;;;26.79;23.49;100512.47;12199630;19;20838;-81
2022/04/29 13:57:58;;;;;;;6.40;2.63;;;;;;;27.40;23.50;100502.75;12182875;19;20528;-81
2022/04/29 14:02:00;;;;;;;4.00;3.08;;;;;;;26.71;22.70;100506.88;12202155;19;20405;-80
2022/04/29 14:06:04;;;;;;;5.68;2.72;;;;;;;26.26;23.24;100496.94;12202671;19;20034;-80
2022/04/29 14:10:07;;;;;;;7.60;2.92;;;;;;;25.61;24.56;100503.75;12181078;19;20014;-80
2022/04/29 14:14:09;;;;;;;4.78;2.78;;;;;;;25.90;24.69;100495.41;12200845;19;20009;-81
2022/04/29 14:18:11;;;;;;;4.22;3.00;;;;;;;25.85;24.07;100484.31;12198383;19;20449;-80
2022/04/29 14:22:13;;;;;;;4.72;2.85;;;;;;;25.25;24.17;100473.91;12182453;19;20022;-80
2022/04/29 14:26:14;;;;;;;6.78;3.35;;;;;;;24.88;25.04;100478.19;12198412;19;20074;-80
2022/04/29 14:30:22;;;;;;;5.97;3.03;;;;;;;23.98;25.85;100465.31;12192303;19;20020;-80
2022/04/29 14:34:28;;;;;;;5.53;2.70;;;;;;;23.76;26.60;100471.81;12183858;19;20017;-80
2022/04/29 14:38:30;;;;;;;9.38;3.38;;;;;;;23.89;27.17;100464.44;12205503;19;20007;-80
2022/04/29 14:42:33;;;;;;;6.53;3.53;;;;;;;23.52;26.71;100463.69;12202997;19;20343;-80
2022/04/29 14:46:36;;;;;;;5.25;2.97;;;;;;;23.35;27.25;100457.94;12184403;19;20436;-80
2022/04/29 14:50:38;;;;;;;5.15;3.08;;;;;;;22.98;28.03;100465.59;12208841;19;20098;-80
2022/04/29 14:54:41;;;;;;;;;;;;;;;22.89;27.61;100459.03;12211471;19;20115;-79
2022/04/29 14:58:43;;;;;;;5.05;2.75;;;;;;;23.17;27.82;100457.81;12198151;19;19922;-80
2022/04/29 15:02:45;;;;;;;3.73;2.53;;;;;;;23.01;28.02;100453.72;12214980;19;20417;-80
2022/04/29 15:06:47;;;;;;;5.43;3.00;;;;;;;23.12;28.13;100449.50;12204146;19;20040;-79
2022/04/29 15:16:32;;;;;;;6.15;3.70;;;;;;;22.97;28.69;100444.25;12229434;19;20021;-79
2022/04/29 15:27:02;;;;;;;;;;;;;;;;;;;;;
2022/04/29 15:31:59;;;;;;;6.90;3.28;;;;;;;23.07;28.21;100434.75;12174630;19;20072;-79
2022/04/29 15:36:07;;;;;;;3.83;3.08;;;;;;;23.04;28.65;100429.75;12199221;19;20011;-79
2022/04/29 15:41:11;;;;;;;5.18;3.10;;;;;;;23.22;28.44;100420.31;12166448;19;20019;-78
2022/04/29 15:45:35;;;;;;;4.57;3.33;;;;;;;22.62;29.93;100429.03;12192034;19;20056;-79
2022/04/29 15:49:37;;;;;;;4.22;3.15;;;;;;;22.36;30.15;100418.34;12171912;19;20023;-79
2022/04/29 15:53:40;;;;;;;6.25;3.67;;;;;;;22.11;30.96;100408.47;12194794;19;20782;-79
2022/04/29 15:57:42;;;;;;;4.90;3.22;;;;;;;22.03;30.82;100412.84;12208733;19;20078;-79
2022/04/29 16:01:44;;;;;;;4.93;3.03;;;;;;;21.77;30.59;100414.47;12168111;19;20015;-79
2022/04/29 16:05:46;;;;;;;11.63;3.70;;;;;;;21.67;31.60;100418.31;12202583;19;20074;-79
2022/04/29 16:09:47;;;;;;;4.82;3.10;;;;;;;21.42;31.28;100411.22;12194977;19;20025;-80
2022/04/29 16:13:50;;;;;;;5.80;3.35;;;;;;;21.25;32.10;100414.56;12211938;19;20014;-79
2022/04/29 16:22:13;;;;;;;4.93;3.65;;;;;;;20.87;33.33;100409.00;12193805;19;20018;-80
2022/04/29 16:26:18;;;;;;;5.43;3.67;;;;;;;20.79;34.27;100409.72;12205646;19;20002;-80
2022/04/29 16:30:22;;;;;;;7.22;3.53;;;;;;;20.67;34.78;100412.13;12205794;19;20017;-79
2022/04/29 16:34:26;;;;;;;4.60;3.35;;;;;;;20.59;35.77;100404.44;12186075;19;20389;-80
2022/04/29 16:38:28;;;;;;;;;;;;;;;20.46;36.22;100408.75;12216643;19;20007;-79
2022/04/29 16:42:30;;;;;;;6.53;3.33;;;;;;;20.41;36.41;100406.03;12214558;19;20243;-79
2022/04/29 16:46:35;;;;;;;5.00;3.25;;;;;;;20.37;37.27;100399.38;12187177;19;20011;-80
2022/04/29 16:50:43;;;;;;;5.22;3.42;;;;;;;20.32;38.59;100397.50;12203406;19;20011;-79
2022/04/29 16:54:44;;;;;;;4.35;3.03;;;;;;;20.28;38.66;100388.00;12203059;19;20031;-79
2022/04/29 16:58:55;;;;;;;5.97;3.50;;;;;;;20.19;38.51;100385.03;12178619;19;20442;-79
2022/04/29 17:02:58;;;;;;;5.57;3.42;;;;;;;19.95;37.87;100384.25;12205289;19;20015;-79
2022/04/29 17:07:00;;;;;;;6.25;3.42;;;;;;;19.73;37.62;100379.22;12181771;19;20027;-79
2022/04/29 17:11:02;;;;;;;5.53;3.33;;;;;;;19.54;37.62;100393.06;12215175;19;20018;-79
2022/04/29 17:15:05;;;;;;;5.30;3.30;;;;;;;19.33;38.76;100393.28;12203840;19;20018;-79
2022/04/29 17:19:06;;;;;;;6.53;3.42;;;;;;;19.12;40.09;100380.63;12181226;19;20027;-79
2022/04/29 17:23:08;;;;;;;5.82;3.15;;;;;;;18.91;41.15;100388.34;12214094;19;20048;-78
2022/04/29 17:27:10;;;;;;;5.30;3.37;;;;;;;18.68;42.17;100392.69;12204607;19;20054;-79
2022/04/29 17:31:11;;;;;;;5.22;3.20;;;;;;;18.51;42.70;100392.22;12183179;19;20070;-80
2022/04/29 17:35:13;;;;;;;6.53;3.70;;;;;;;18.33;43.85;100393.72;12198311;19;20002;-78
2022/04/29 17:43:39;;;;;;;8.02;3.65;;;;;;;17.93;45.16;100398.34;12185811;19;20023;-78
2022/04/29 17:47:41;;;;;;;5.75;3.97;;;;;;;17.76;45.83;100393.94;12201352;19;20023;-79
2022/04/29 17:51:43;;;;;;;7.45;3.85;;;;;;;17.60;46.26;100389.50;12201280;19;20010;-78
2022/04/29 17:55:45;;;;;;;4.93;2.97;;;;;;;17.42;46.32;100388.16;12187052;19;20010;-79
2022/04/29 17:59:47;;;;;;;6.50;3.70;;;;;;;17.27;46.59;100394.56;12199281;19;20015;-79
2022/04/29 18:03:48;;;;;;;6.00;3.90;;;;;;;17.11;46.90;100386.53;12190180;19;20086;-79
2022/04/29 18:07:50;;;;;;;4.05;3.17;;;;;;;16.95;47.55;100394.88;12198358;19;20014;-79
2022/04/29 18:11:52;;;;;;;7.00;3.20;;;;;;;16.80;48.01;100387.34;12206559;19;20003;-79
2022/04/29 18:15:54;;;;;;;4.55;3.33;;;;;;;16.66;48.50;100389.00;12178590;19;20022;-79
2022/04/29 18:19:56;;;;;;;5.18;2.83;;;;;;;16.49;48.99;100385.63;12194553;19;20014;-79
2022/04/29 18:23:58;;;;;;;7.07;3.83;;;;;;;16.31;49.28;100393.38;12208116;19;20015;-78
2022/04/29 18:28:01;;;;;;;5.70;3.50;;;;;;;16.14;49.49;100387.19;12183773;19;20021;-78
2022/04/29 18:32:07;;;;;;;4.82;3.53;;;;;;;15.98;49.20;100391.88;12200101;19;20064;-78
2022/04/29 18:36:09;;;;;;;6.25;4.68;;;;;;;15.82;49.57;100388.16;12212584;19;20026;-79
2022/04/29 18:40:12;;;;;;;7.30;5.32;;;;;;;15.67;49.81;100390.81;12180164;19;20007;-79
2022/04/29 18:44:13;;;;;;;7.55;4.75;;;;;;;15.53;50.22;100393.28;12206741;19;20007;-79
2022/04/29 18:48:15;;;;;;;8.73;4.07;;;;;;;15.44;50.34;100406.00;12196276;19;20358;-79
2022/04/29 18:52:22;;;;;;;7.07;3.72;;;;;;;15.34;50.81;100401.19;12177915;19;20077;-78
2022/04/29 18:56:29;;;;;;;5.97;3.70;;;;;;;15.28;51.20;100399.47;12208045;19;20081;-79
2022/04/29 19:00:33;;;;;;;4.30;3.28;;;;;;;15.25;51.24;100402.78;12197916;19;20076;-79
2022/04/29 19:04:35;;;;;;;9.93;3.50;;;;;;;15.20;51.26;100399.97;12180072;19;20011;-79
2022/04/29 19:08:38;;;;;;;6.53;3.42;;;;;;;15.15;51.22;100398.00;12204213;19;20010;-80
2022/04/29 19:12:40;;;;;;;5.80;3.35;;;;;;;15.14;51.43;100409.34;12203468;19;20030;-79
2022/04/29 19:16:42;;;;;;;5.15;3.88;;;;;;;15.10;51.26;100403.50;12177684;19;20014;-79
2022/04/29 19:20:44;;;;;;;5.75;4.18;;;;;;;15.06;51.23;100401.53;12203252;19;20022;-79
2022/04/29 19:24:46;;;;;;;7.20;3.43;;;;;;;15.03;51.14;100397.34;12198406;19;20477;-79
2022/04/29 19:28:48;;;;;;;;;;;;;;;15.00;51.55;100404.25;12187804;19;20007;-79
2022/04/29 19:32:50;;;;;;;6.55;4.90;;;;;;;15.01;51.01;100405.09;12212766;19;19918;-81
2022/04/29 19:36:54;;;;;;;7.32;3.72;;;;;;;15.01;51.22;100417.03;12199262;19;20015;-81
2022/04/29 19:40:56;;;;;;;6.45;3.97;;;;;;;15.02;51.44;100406.75;12218205;19;20049;-81
2022/04/29 19:44:58;;;;;;;7.35;4.38;;;;;;;15.03;51.47;100408.47;12209329;19;20070;-80
2022/04/29 19:48:59;;;;;;;7.10;3.33;;;;;;;15.04;51.45;100407.34;12190698;19;20519;-80
2022/04/29 19:53:02;;;;;;;5.05;3.47;;;;;;;15.05;51.66;100400.72;12215442;19;20079;-78
2022/04/29 20:06:05;;;;;;;7.80;3.22;;;;;;;14.97;51.80;100388.16;12219304;19;20014;-79
2022/04/29 20:10:08;;;;;;;7.43;3.75;;;;;;;14.96;51.97;100399.50;12195230;19;20020;-79
2022/04/29 20:14:09;;;;;;;4.82;3.25;;;;;;;14.91;52.10;100393.94;12219035;19;20090;-79